Time;durP1;ratioP1;P1;durP2;ratioP2;P2;SDS_P1;SDS_P2;PMS_P1;PMS_P2;Temp;Humidity;BMP_temperature;BMP_pressure;BME280_temperature;BME280_humidity;BME280_pressure;Samples;Min_cycle;Max_cycle;Signal;HPM_P1;HPM_P2
2023/02/13 00:03:43;;;;;;;;;;;10.40;99.90;;;;;;5000358;28;19917;-82
2023/02/13 01:03:10;;;;;;;;;;;;;;;;;;;;;
2023/02/13 01:11:59;;;;;;;;;;;10.10;99.90;;;;;;4897517;29;19958;-81
2023/02/13 01:31:12;;;;;;;;;;;;;;;;;;;;;
2023/02/13 01:37:16;;;;;;;;;;;;;;;;;;;;;
2023/02/13 01:40:18;;;;;;;;;;;10.20;99.90;;;;;;4953225;29;19911;-82
2023/02/13 02:12:44;;;;;;;;;;;10.30;99.90;;;;;;4955667;29;19910;-81
2023/02/13 02:15:38;;;;;;;;;;;10.30;99.90;;;;;;4986316;28;20265;-81
2023/02/13 02:18:28;;;;;;;;;;;10.30;99.90;;;;;;5014551;28;20430;-81
2023/02/13 02:30:33;;;;;;;;;;;10.30;99.90;;;;;;5057230;28;19955;-81
2023/02/13 03:25:57;;;;;;;;;;;10.00;99.90;;;;;;5075569;28;20062;-80
2023/02/13 03:44:32;;;;;;;;;;;9.80;99.90;;;;;;5013286;28;19923;-80
2023/02/13 03:50:52;;;;;;;;;;;9.80;99.90;;;;;;5003993;28;19916;-80
2023/02/13 03:53:32;;;;;;;;;;;;;;;;;;;;;
2023/02/13 03:59:32;;;;;;;;;;;9.80;99.90;;;;;;5075062;28;19935;-81
2023/02/13 04:42:24;;;;;;;;;;;;;;;;;;;;;
2023/02/13 04:48:32;;;;;;;;;;;;;;;;;;;;;
2023/02/13 04:57:44;;;;;;;;;;;;;;;;;;;;;
2023/02/13 05:03:38;;;;;;;;;;;9.30;99.90;;;;;;5051025;28;19919;-80
2023/02/13 05:06:29;;;;;;;;;;;9.20;99.90;;;;;;5094659;22;20397;-80
2023/02/13 05:30:43;;;;;;;;;;;8.60;99.90;;;;;;5033374;28;19916;-79
2023/02/13 05:39:14;;;;;;;;;;;;;;;;;;;;;
2023/02/13 05:52:20;;;;;;;;;;;8.20;99.90;;;;;;5071624;28;19931;-80
2023/02/13 06:07:48;;;;;;;;;;;8.00;99.90;;;;;;4978330;28;19922;-80
2023/02/13 06:10:46;;;;;;;;;;;7.90;99.90;;;;;;5013756;28;20481;-80
2023/02/13 07:17:35;;;;;;;;;;;7.50;99.90;;;;;;5055957;28;19925;-81
2023/02/13 07:39:24;;;;;;;;;;;7.60;99.90;;;;;;4994725;28;19916;-80
2023/02/13 07:49:02;;;;;;;;;;;7.80;99.90;;;;;;4917345;29;19915;-80
2023/02/13 08:01:14;;;;;;;;;;;8.00;99.90;;;;;;5016568;28;19959;-80
2023/02/13 08:04:25;;;;;;;;;;;8.00;99.90;;;;;;4989212;28;20279;-79
2023/02/13 08:35:14;;;;;;;;;;;8.70;99.90;;;;;;4973848;28;19948;-79
2023/02/13 08:40:58;;;;;;;;;;;8.80;99.90;;;;;;4973806;28;19917;-79
2023/02/13 08:56:20;;;;;;;;;;;9.10;99.90;;;;;;5009506;28;19991;-79
2023/02/13 08:59:23;;;;;;;;;;;9.10;99.90;;;;;;5012500;28;20293;-78
2023/02/13 09:02:40;;;;;;;;;;;;;;;;;;;;;
2023/02/13 09:05:34;;;;;;;;;;;9.20;99.90;;;;;;4895431;29;19924;-79
2023/02/13 09:11:38;;;;;;;;;;;;;;;;;;;;;
2023/02/13 09:23:49;;;;;;;;;;;9.60;99.90;;;;;;4980385;28;19917;-78
2023/02/13 09:26:37;;;;;;;;;;;9.60;99.90;;;;;;5029459;28;19917;-79
2023/02/13 09:29:36;;;;;;;;;;;9.60;99.90;;;;;;5053423;28;19916;-79
2023/02/13 09:38:28;;;;;;;;;;;9.90;99.90;;;;;;5053692;28;19916;-79
2023/02/13 09:44:36;;;;;;;;;;;10.00;99.90;;;;;;5011715;28;19914;-79
2023/02/13 09:47:30;;;;;;;;;;;;;;;;;;;;;
2023/02/13 09:50:07;;;;;;;;;;;10.20;99.90;;;;;;5048091;28;19915;-77
2023/02/13 09:52:52;;;;;;;;;;;10.30;99.90;;;;;;5016359;28;19911;-78
2023/02/13 09:55:28;;;;;;;;;;;10.40;99.90;;;;;;5016155;28;19914;-78
2023/02/13 09:58:17;;;;;;;;;;;10.50;99.90;;;;;;5017242;28;19909;-78
2023/02/13 10:01:06;;;;;;;;;;;10.70;99.90;;;;;;5015656;28;20341;-78
2023/02/13 10:03:53;;;;;;;;;;;10.80;99.90;;;;;;5016974;28;19909;-78
2023/02/13 10:06:21;;;;;;;;;;;10.90;99.90;;;;;;5015301;28;19913;-77
2023/02/13 10:09:06;;;;;;;;;;;11.00;99.90;;;;;;5016373;28;19916;-77
2023/02/13 10:11:50;;;;;;;;;;;11.10;99.90;;;;;;5016430;28;19994;-78
2023/02/13 10:14:18;;;;;;;;;;;11.20;99.90;;;;;;5016647;28;19910;-78
2023/02/13 10:16:46;;;;;;;;;;;11.20;99.90;;;;;;5035200;28;20286;-78
2023/02/13 10:19:30;;;;;;;;;;;11.30;99.90;;;;;;5016717;28;20375;-77
2023/02/13 10:21:57;;;;;;;;;;;11.30;99.90;;;;;;5016051;28;19916;-77
2023/02/13 10:24:29;;;;;;;;;;;11.40;99.90;;;;;;5033604;28;19910;-78
2023/02/13 10:26:55;;;;;;;;;;;11.40;99.90;;;;;;5019618;28;19917;-77
2023/02/13 10:32:09;;;;;;;;;;;11.60;99.90;;;;;;5037972;28;19995;-78
2023/02/13 10:34:39;;;;;;;;;;;11.70;99.90;;;;;;5038096;28;20376;-78
2023/02/13 10:37:11;;;;;;;;;;;11.80;99.90;;;;;;5020937;28;20294;-78
2023/02/13 10:39:36;;;;;;;;;;;11.80;99.90;;;;;;5020553;28;19916;-78
2023/02/13 10:42:17;;;;;;;;;;;11.90;99.90;;;;;;5037904;28;19909;-78
2023/02/13 10:45:07;;;;;;;;;;;11.90;99.90;;;;;;5060297;22;19948;-78
2023/02/13 10:51:48;;;;;;;;;;;;;;;;;;;;;
2023/02/13 10:54:51;;;;;;;;;;;12.10;99.90;;;;;;4977955;28;19914;-78
2023/02/13 10:57:36;;;;;;;;;;;12.20;99.90;;;;;;4922128;28;19910;-78
2023/02/13 11:00:01;;;;;;;;;;;12.50;99.90;;;;;;5052305;28;20103;-78
2023/02/13 11:02:28;;;;;;;;;;;12.70;99.90;;;;;;5060372;28;19915;-78
2023/02/13 11:05:14;;;;;;;;;;;12.90;99.90;;;;;;5067220;22;19925;-79
2023/02/13 11:07:43;;;;;;;;;;;13.10;99.90;;;;;;5041651;28;19943;-78
2023/02/13 11:10:31;;;;;;;;;;;13.30;99.90;;;;;;5059792;28;19909;-78
2023/02/13 11:13:16;;;;;;;;;;;13.40;99.90;;;;;;5059331;28;20298;-78
2023/02/13 11:15:41;;;;;;;;;;;14.70;99.90;;;;;;5087955;22;20521;-79
2023/02/13 11:18:17;;;;;;;;;;;18.00;99.90;;;;;;5074824;28;19908;-80
2023/02/13 11:20:45;;;;;;;;;;;20.90;99.90;;;;;;5067418;28;19999;-80
2023/02/13 11:23:29;;;;;;;;;;;23.60;1.00;;;;;;5056816;28;19958;-80
2023/02/13 11:25:55;;;;;;;;;;;25.40;1.00;;;;;;5056796;28;19919;-80
2023/02/13 11:28:21;;;;;;;;;;;26.70;1.00;;;;;;5075120;28;19913;-80
2023/02/13 11:30:47;;;;;;;;;;;28.40;1.00;;;;;;5074700;28;19954;-81
2023/02/13 11:33:16;;;;;;;;;;;29.80;1.00;;;;;;5074660;28;20408;-80
2023/02/13 11:35:41;;;;;;;;;;;30.60;1.00;;;;;;5074825;28;20362;-81
2023/02/13 11:38:07;;;;;;;;;;;31.70;1.00;;;;;;5073805;28;19915;-81
2023/02/13 11:40:32;;;;;;;;;;;32.30;1.00;;;;;;5055489;28;19915;-81
2023/02/13 11:42:58;;;;;;;;;;;33.10;1.00;;;;;;5055473;28;19954;-81
2023/02/13 11:45:24;;;;;;;;;;;33.40;1.00;;;;;;5055529;28;20354;-82
2023/02/13 11:47:50;;;;;;;;;;;33.80;1.00;;;;;;5052694;28;19913;-81
2023/02/13 11:50:28;;;;;;;;;;;33.90;1.00;;;;;;5054267;28;19920;-81
2023/02/13 11:53:02;;;;;;;;;;;33.90;1.00;;;;;;5031411;28;20402;-81
2023/02/13 11:55:37;;;;;;;;;;;33.40;1.00;;;;;;5035274;28;19916;-81
2023/02/13 11:58:08;;;;;;;;;;;33.40;1.00;;;;;;5035533;28;19932;-80
2023/02/13 12:00:38;;;;;;;;;;;33.70;1.00;;;;;;5035557;28;19909;-80
2023/02/13 12:03:24;;;;;;;;;;;33.90;1.00;;;;;;5035705;28;19918;-81
2023/02/13 12:06:01;;;;;;;;;;;34.20;1.00;;;;;;5017448;28;20355;-81
2023/02/13 12:08:28;;;;;;;;;;;34.00;1.00;;;;;;5035182;28;20479;-81
2023/02/13 12:10:54;;;;;;;;;;;34.00;1.00;;;;;;5033770;28;19909;-81
2023/02/13 12:13:26;;;;;;;;;;;34.20;1.00;;;;;;5035056;28;19916;-81
2023/02/13 12:15:57;;;;;;;;;;;33.70;1.00;;;;;;5034869;28;19975;-80
2023/02/13 12:18:28;;;;;;;;;;;33.90;1.00;;;;;;5017653;28;19909;-81
2023/02/13 12:21:00;;;;;;;;;;;34.30;1.00;;;;;;5035345;28;19910;-81
2023/02/13 12:23:28;;;;;;;;;;;34.70;1.00;;;;;;5035126;28;19909;-81
2023/02/13 12:25:56;;;;;;;;;;;34.80;1.00;;;;;;5034973;28;19915;-81
2023/02/13 12:28:33;;;;;;;;;;;34.70;1.00;;;;;;5034858;28;20425;-81
2023/02/13 12:31:16;;;;;;;;;;;34.80;1.00;;;;;;5034951;28;20410;-81
2023/02/13 12:33:42;;;;;;;;;;;34.20;1.00;;;;;;5033957;28;19909;-82
2023/02/13 12:36:07;;;;;;;;;;;32.70;1.00;;;;;;5046287;28;20023;-81
2023/02/13 12:38:36;;;;;;;;;;;32.20;1.00;;;;;;5037490;28;19959;-82
2023/02/13 12:41:12;;;;;;;;;;;32.30;1.00;;;;;;5043850;28;19923;-81
2023/02/13 12:43:48;;;;;;;;;;;31.20;1.00;;;;;;5059556;28;20275;-81
2023/02/13 12:46:25;;;;;;;;;;;29.10;1.00;;;;;;5061081;28;19909;-81
2023/02/13 12:49:13;;;;;;;;;;;28.10;1.00;;;;;;5053404;28;20293;-81
2023/02/13 12:51:45;;;;;;;;;;;27.00;1.00;;;;;;5045272;28;19909;-81
2023/02/13 12:54:27;;;;;;;;;;;25.30;1.00;;;;;;5053754;28;20035;-81
2023/02/13 12:56:52;;;;;;;;;;;24.10;1.00;;;;;;5034181;28;19952;-80
2023/02/13 12:59:18;;;;;;;;;;;23.70;1.00;;;;;;5033432;28;19964;-80
2023/02/13 13:02:06;;;;;;;;;;;23.20;1.00;;;;;;5032039;28;19920;-81
2023/02/13 13:04:31;;;;;;;;;;;23.40;1.00;;;;;;5032422;28;19917;-81
2023/02/13 13:07:17;;;;;;;;;;;25.60;1.00;;;;;;5033631;28;19913;-81
2023/02/13 13:09:51;;;;;;;;;;;27.60;1.00;;;;;;5033852;28;19962;-81
2023/02/13 13:12:26;;;;;;;;;;;28.60;1.00;;;;;;5032298;28;19953;-82
2023/02/13 13:14:54;;;;;;;;;;;28.70;1.00;;;;;;5033418;28;19952;-82
2023/02/13 13:17:38;;;;;;;;;;;30.30;1.00;;;;;;5034115;28;19963;-81
2023/02/13 13:20:21;;;;;;;;;;;31.70;1.00;;;;;;5034120;28;19931;-81
2023/02/13 13:22:52;;;;;;;;;;;33.60;1.00;;;;;;5034803;28;19993;-81
2023/02/13 13:25:26;;;;;;;;;;;34.50;1.00;;;;;;5071408;28;19973;-81
2023/02/13 13:27:56;;;;;;;;;;;34.90;1.00;;;;;;5074037;28;20414;-82
2023/02/13 13:30:30;;;;;;;;;;;34.90;1.00;;;;;;5073821;28;19979;-81
2023/02/13 13:33:10;;;;;;;;;;;34.60;1.00;;;;;;5055235;28;19909;-81
2023/02/13 13:35:37;;;;;;;;;;;33.30;1.00;;;;;;5056779;28;20443;-81
2023/02/13 13:38:21;;;;;;;;;;;31.40;1.00;;;;;;5069495;28;19947;-81
2023/02/13 13:40:55;;;;;;;;;;;29.60;1.00;;;;;;5033385;28;19909;-81
2023/02/13 13:43:42;;;;;;;;;;;27.70;1.00;;;;;;5020577;28;20400;-81
2023/02/13 13:46:13;;;;;;;;;;;27.10;1.00;;;;;;5074282;28;19909;-81
2023/02/13 13:48:38;;;;;;;;;;;26.00;1.00;;;;;;5055518;28;19946;-80
2023/02/13 13:51:05;;;;;;;;;;;25.30;1.00;;;;;;5051993;28;19908;-81
2023/02/13 13:53:31;;;;;;;;;;;24.60;1.00;;;;;;5056074;28;19916;-81
2023/02/13 13:55:58;;;;;;;;;;;24.00;1.00;;;;;;5054752;28;19936;-80
2023/02/13 13:58:35;;;;;;;;;;;23.10;1.00;;;;;;5073327;28;19915;-80
2023/02/13 14:01:13;;;;;;;;;;;22.20;99.90;;;;;;5074985;28;19912;-80
2023/02/13 14:03:39;;;;;;;;;;;21.50;99.90;;;;;;5076974;28;20289;-80
2023/02/13 14:06:09;;;;;;;;;;;21.00;99.90;;;;;;5058856;28;20262;-80
2023/02/13 14:08:40;;;;;;;;;;;20.60;99.90;;;;;;5076634;28;19913;-80
2023/02/13 14:11:24;;;;;;;;;;;20.20;99.90;;;;;;5076193;28;19908;-80
2023/02/13 14:13:50;;;;;;;;;;;20.00;99.90;;;;;;5076763;28;19909;-80
2023/02/13 14:16:34;;;;;;;;;;;20.00;99.90;;;;;;5055022;28;19916;-80
2023/02/13 14:19:00;;;;;;;;;;;20.60;99.90;;;;;;5076438;28;19952;-79
2023/02/13 14:21:25;;;;;;;;;;;21.10;99.90;;;;;;5075929;28;19916;-80
2023/02/13 14:23:56;;;;;;;;;;;21.30;99.90;;;;;;5076114;28;19908;-79
2023/02/13 14:26:34;;;;;;;;;;;21.20;99.90;;;;;;5058299;28;19913;-80
2023/02/13 14:29:09;;;;;;;;;;;21.20;99.90;;;;;;5058040;28;19913;-80
2023/02/13 14:31:38;;;;;;;;;;;21.00;99.90;;;;;;5077245;28;20368;-82
2023/02/13 14:34:09;;;;;;;;;;;20.70;99.90;;;;;;5081799;28;20011;-81
2023/02/13 14:36:39;;;;;;;;;;;20.70;99.90;;;;;;5079555;28;19912;-81
2023/02/13 14:39:19;;;;;;;;;;;20.40;99.90;;;;;;5079606;28;19946;-81
2023/02/13 14:41:57;;;;;;;;;;;20.30;99.90;;;;;;5079465;28;20399;-81
2023/02/13 14:44:30;;;;;;;;;;;20.00;99.90;;;;;;5080404;28;19954;-81
2023/02/13 14:46:55;;;;;;;;;;;19.70;99.90;;;;;;5080151;28;20404;-81
2023/02/13 14:49:26;;;;;;;;;;;19.50;99.90;;;;;;5079519;28;19912;-81
2023/02/13 14:51:56;;;;;;;;;;;19.50;99.90;;;;;;5078917;28;19916;-81
2023/02/13 14:54:27;;;;;;;;;;;19.40;99.90;;;;;;5079580;28;19912;-81
2023/02/13 14:57:05;;;;;;;;;;;19.20;99.90;;;;;;5079622;28;20320;-81
2023/02/13 14:59:34;;;;;;;;;;;19.00;99.90;;;;;;5079019;28;19992;-80
2023/02/13 15:02:01;;;;;;;;;;;18.70;99.90;;;;;;5078942;28;19908;-81
2023/02/13 15:04:46;;;;;;;;;;;18.50;99.90;;;;;;5078972;28;20292;-79
2023/02/13 15:07:17;;;;;;;;;;;18.40;99.90;;;;;;5078322;28;19916;-81
2023/02/13 15:09:45;;;;;;;;;;;18.20;99.90;;;;;;5078997;28;19974;-80
2023/02/13 15:12:31;;;;;;;;;;;18.10;99.90;;;;;;5077970;28;19944;-84
2023/02/13 15:14:57;;;;;;;;;;;17.90;99.90;;;;;;5079757;28;20296;-82
2023/02/13 15:17:37;;;;;;;;;;;17.80;99.90;;;;;;5061331;28;20328;-82
2023/02/13 15:20:26;;;;;;;;;;;17.80;99.90;;;;;;5078767;28;19961;-82
2023/02/13 15:22:52;;;;;;;;;;;17.60;99.90;;;;;;5032768;28;19917;-82
2023/02/13 15:25:34;;;;;;;;;;;17.50;99.90;;;;;;5047693;28;19920;-85
2023/02/13 15:28:01;;;;;;;;;;;17.40;99.90;;;;;;5074692;28;19924;-84
2023/02/13 15:30:31;;;;;;;;;;;17.20;99.90;;;;;;5058613;28;19912;-84
2023/02/13 15:32:57;;;;;;;;;;;17.10;99.90;;;;;;5039509;28;19913;-85
2023/02/13 15:35:25;;;;;;;;;;;16.90;99.90;;;;;;5040266;28;19936;-83
2023/02/13 15:37:51;;;;;;;;;;;16.80;99.90;;;;;;5058151;28;19909;-85
2023/02/13 15:40:22;;;;;;;;;;;16.80;99.90;;;;;;5036759;28;19963;-84
2023/02/13 15:42:48;;;;;;;;;;;16.70;99.90;;;;;;5052163;28;20337;-82
2023/02/13 15:45:14;;;;;;;;;;;16.70;99.90;;;;;;5053938;28;19912;-82
2023/02/13 15:47:41;;;;;;;;;;;16.60;99.90;;;;;;5034424;28;20008;-82
2023/02/13 15:50:18;;;;;;;;;;;16.40;99.90;;;;;;5034652;28;19909;-84
2023/02/13 15:52:44;;;;;;;;;;;16.40;99.90;;;;;;5016370;28;20321;-85
2023/02/13 15:55:27;;;;;;;;;;;16.30;99.90;;;;;;5034144;28;20294;-83
2023/02/13 15:57:54;;;;;;;;;;;16.20;99.90;;;;;;5034348;28;20004;-85
2023/02/13 16:00:28;;;;;;;;;;;16.10;99.90;;;;;;5034192;28;19909;-83
2023/02/13 16:02:54;;;;;;;;;;;16.00;99.90;;;;;;5034107;28;19932;-83
2023/02/13 16:05:20;;;;;;;;;;;16.00;99.90;;;;;;5016750;28;20302;-82
2023/02/13 16:07:50;;;;;;;;;;;15.90;99.90;;;;;;5034200;28;19913;-81
2023/02/13 16:10:30;;;;;;;;;;;15.80;99.90;;;;;;5036116;28;20451;-81
2023/02/13 16:12:57;;;;;;;;;;;15.70;99.90;;;;;;5043610;28;19913;-81
2023/02/13 16:15:24;;;;;;;;;;;15.70;99.90;;;;;;5043964;28;19921;-82
2023/02/13 16:17:49;;;;;;;;;;;15.60;99.90;;;;;;5016593;28;19948;-82
2023/02/13 16:20:18;;;;;;;;;;;15.50;99.90;;;;;;5033690;28;19952;-82
2023/02/13 16:22:51;;;;;;;;;;;15.50;99.90;;;;;;5033032;28;19910;-81
2023/02/13 16:25:31;;;;;;;;;;;15.40;99.90;;;;;;5034110;28;20008;-81
2023/02/13 16:27:58;;;;;;;;;;;15.30;1.00;;;;;;5039856;28;19919;-82
2023/02/13 16:30:27;;;;;;;;;;;15.10;1.00;;;;;;5035180;28;19917;-82
2023/02/13 16:33:07;;;;;;;;;;;15.10;1.00;;;;;;5048801;28;20377;-82
2023/02/13 16:35:36;;;;;;;;;;;15.00;1.00;;;;;;5053504;28;19909;-82
2023/02/13 16:38:03;;;;;;;;;;;14.80;1.00;;;;;;5053326;28;19955;-81
2023/02/13 16:40:34;;;;;;;;;;;14.70;1.00;;;;;;5053617;28;19955;-82
2023/02/13 16:43:18;;;;;;;;;;;14.60;1.00;;;;;;5053121;28;19909;-82
2023/02/13 16:45:43;;;;;;;;;;;14.50;1.00;;;;;;5053179;28;19940;-83
2023/02/13 16:48:12;;;;;;;;;;;14.40;1.00;;;;;;5035959;28;19967;-84
2023/02/13 16:50:37;;;;;;;;;;;14.30;1.00;;;;;;5035192;28;19916;-84
2023/02/13 16:53:03;;;;;;;;;;;14.20;1.00;;;;;;5053668;28;19909;-83
2023/02/13 16:55:30;;;;;;;;;;;14.20;1.00;;;;;;5053092;28;20404;-83
2023/02/13 16:58:05;;;;;;;;;;;14.10;1.00;;;;;;5047426;28;19928;-82
2023/02/13 17:00:30;;;;;;;;;;;14.10;1.00;;;;;;5050328;28;19919;-80
2023/02/13 17:02:56;;;;;;;;;;;13.90;1.00;;;;;;5048273;28;19995;-80
2023/02/13 17:05:22;;;;;;;;;;;13.90;1.00;;;;;;5053315;28;19997;-80
2023/02/13 17:07:53;;;;;;;;;;;13.80;1.00;;;;;;5053488;28;19913;-79
2023/02/13 17:10:22;;;;;;;;;;;13.70;1.00;;;;;;5053156;28;19916;-80
2023/02/13 17:12:49;;;;;;;;;;;13.60;1.00;;;;;;5037327;28;19921;-79
2023/02/13 17:15:16;;;;;;;;;;;13.60;1.00;;;;;;5035836;28;19917;-79
2023/02/13 17:17:41;;;;;;;;;;;13.50;1.00;;;;;;5053660;28;19913;-80
2023/02/13 17:20:07;;;;;;;;;;;13.50;1.00;;;;;;5053113;28;20003;-79
2023/02/13 17:22:40;;;;;;;;;;;13.40;1.00;;;;;;5058218;28;19909;-80
2023/02/13 17:25:07;;;;;;;;;;;13.30;1.00;;;;;;5042309;28;19908;-81
2023/02/13 17:27:33;;;;;;;;;;;13.30;1.00;;;;;;5043418;28;19913;-81
2023/02/13 17:29:58;;;;;;;;;;;13.20;99.90;;;;;;5038084;28;20263;-81
2023/02/13 17:32:25;;;;;;;;;;;13.10;27.20;;;;;;5053728;28;19916;-81
2023/02/13 17:34:51;;;;;;;;;;;13.10;42.00;;;;;;5053144;28;20024;-81
2023/02/13 17:37:18;;;;;;;;;;;13.00;99.90;;;;;;5040763;28;19909;-82
2023/02/13 17:39:44;;;;;;;;;;;12.90;99.90;;;;;;5055885;28;19956;-80
2023/02/13 17:42:18;;;;;;;;;;;12.90;99.90;;;;;;5052998;28;19916;-81
2023/02/13 17:44:44;;;;;;;;;;;12.80;99.90;;;;;;5053232;28;20370;-81
2023/02/13 17:47:09;;;;;;;;;;;12.70;1.00;;;;;;5035184;28;19963;-81
2023/02/13 17:49:35;;;;;;;;;;;12.60;1.00;;;;;;5035144;28;19931;-81
2023/02/13 17:52:00;;;;;;;;;;;12.50;1.00;;;;;;5035829;28;19973;-81
2023/02/13 17:54:26;;;;;;;;;;;12.40;1.00;;;;;;5036116;28;19905;-82
2023/02/13 17:56:51;;;;;;;;;;;12.30;1.00;;;;;;5035396;28;19970;-81
2023/02/13 17:59:17;;;;;;;;;;;12.30;99.90;;;;;;5035765;28;19909;-81
2023/02/13 18:01:42;;;;;;;;;;;12.20;99.90;;;;;;5052302;28;19908;-81
2023/02/13 18:04:08;;;;;;;;;;;12.00;25.60;;;;;;5053830;28;19924;-81
2023/02/13 18:06:33;;;;;;;;;;;11.90;1.00;;;;;;5053026;28;20442;-80
2023/02/13 18:08:59;;;;;;;;;;;11.80;99.90;;;;;;5057744;28;19909;-81
2023/02/13 18:11:24;;;;;;;;;;;11.70;99.90;;;;;;5052479;28;19960;-81
2023/02/13 18:13:49;;;;;;;;;;;11.60;99.90;;;;;;5052368;28;19909;-80
2023/02/13 18:16:15;;;;;;;;;;;11.50;1.00;;;;;;5034507;28;20289;-81
2023/02/13 18:18:40;;;;;;;;;;;11.50;99.90;;;;;;5053271;28;19939;-81
2023/02/13 18:21:06;;;;;;;;;;;11.40;99.90;;;;;;5034461;28;20377;-81
2023/02/13 18:23:31;;;;;;;;;;;11.40;17.60;;;;;;5035943;28;19915;-81
2023/02/13 18:26:07;;;;;;;;;;;11.30;99.90;;;;;;5052673;28;19920;-81
2023/02/13 18:28:33;;;;;;;;;;;11.30;99.90;;;;;;5053177;28;19912;-81
2023/02/13 18:30:58;;;;;;;;;;;11.30;30.50;;;;;;5034413;28;19982;-81
2023/02/13 18:33:24;;;;;;;;;;;11.30;1.00;;;;;;5052993;28;20366;-80
2023/02/13 18:35:49;;;;;;;;;;;11.30;99.90;;;;;;5052002;28;19916;-81
2023/02/13 18:38:15;;;;;;;;;;;11.30;1.00;;;;;;5035274;28;19909;-81
2023/02/13 18:40:40;;;;;;;;;;;11.20;99.90;;;;;;5053405;28;20007;-82
2023/02/13 18:43:05;;;;;;;;;;;11.10;99.90;;;;;;5047700;28;20257;-80
2023/02/13 18:45:31;;;;;;;;;;;11.00;1.00;;;;;;5051523;28;19916;-80
2023/02/13 18:47:56;;;;;;;;;;;10.90;1.00;;;;;;5057419;28;20008;-80
2023/02/13 18:50:24;;;;;;;;;;;10.90;1.00;;;;;;5039437;28;19913;-82
2023/02/13 18:52:50;;;;;;;;;;;10.80;1.00;;;;;;5056009;28;20293;-82
2023/02/13 18:55:15;;;;;;;;;;;10.70;24.60;;;;;;5038189;28;19908;-82
2023/02/13 18:57:42;;;;;;;;;;;10.60;52.80;;;;;;5038143;28;20011;-82
2023/02/13 19:00:08;;;;;;;;;;;10.50;99.90;;;;;;5055672;28;19985;-83
2023/02/13 19:02:33;;;;;;;;;;;10.40;99.90;;;;;;5054857;28;19908;-80
2023/02/13 19:04:59;;;;;;;;;;;10.40;99.90;;;;;;5051711;28;20371;-82
2023/02/13 19:07:25;;;;;;;;;;;10.30;99.90;;;;;;5053454;28;19913;-81
2023/02/13 19:09:50;;;;;;;;;;;10.20;99.90;;;;;;5035746;28;19913;-82
2023/02/13 19:12:16;;;;;;;;;;;10.10;99.90;;;;;;5035403;28;19951;-82
2023/02/13 19:14:42;;;;;;;;;;;10.10;99.90;;;;;;5035462;28;19913;-81
2023/02/13 19:17:09;;;;;;;;;;;9.90;99.90;;;;;;5035401;28;19909;-81
2023/02/13 19:19:34;;;;;;;;;;;9.90;1.00;;;;;;5036158;28;20278;-83
2023/02/13 19:22:06;;;;;;;;;;;9.80;1.00;;;;;;5017399;28;19915;-82
2023/02/13 19:24:31;;;;;;;;;;;9.80;1.00;;;;;;5017750;28;19996;-82
2023/02/13 19:26:57;;;;;;;;;;;9.70;1.00;;;;;;5017566;28;19957;-82
2023/02/13 19:29:22;;;;;;;;;;;9.70;1.00;;;;;;5035347;28;19909;-82
2023/02/13 19:31:48;;;;;;;;;;;9.60;1.00;;;;;;5017232;28;20314;-81
2023/02/13 19:34:13;;;;;;;;;;;9.60;1.00;;;;;;5035323;28;19909;-82
2023/02/13 19:36:39;;;;;;;;;;;9.60;1.00;;;;;;5035079;28;20383;-82
2023/02/13 19:39:05;;;;;;;;;;;9.50;1.00;;;;;;5017422;28;19909;-82
2023/02/13 19:41:31;;;;;;;;;;;9.50;1.00;;;;;;5034794;28;19943;-82
2023/02/13 19:43:57;;;;;;;;;;;9.50;1.00;;;;;;5035070;28;20436;-81
2023/02/13 19:46:24;;;;;;;;;;;9.50;1.00;;;;;;5035033;28;19999;-81
2023/02/13 19:48:49;;;;;;;;;;;9.40;1.00;;;;;;5034996;28;20012;-82
2023/02/13 19:51:16;;;;;;;;;;;9.40;1.00;;;;;;5034654;28;20400;-82
2023/02/13 19:53:42;;;;;;;;;;;9.40;1.00;;;;;;5017226;28;19949;-80
2023/02/13 19:56:08;;;;;;;;;;;9.30;1.00;;;;;;5018189;28;19909;-80
2023/02/13 19:58:35;;;;;;;;;;;9.30;1.00;;;;;;5018160;28;19909;-80
2023/02/13 20:01:10;;;;;;;;;;;9.30;1.00;;;;;;5018431;28;20496;-80
2023/02/13 20:03:36;;;;;;;;;;;9.30;1.00;;;;;;5036308;28;20268;-82
2023/02/13 20:06:03;;;;;;;;;;;9.40;1.00;;;;;;5017085;28;19956;-82
2023/02/13 20:08:28;;;;;;;;;;;9.40;1.00;;;;;;5034452;28;19920;-82
2023/02/13 20:10:54;;;;;;;;;;;9.40;1.00;;;;;;5034479;28;19909;-81
2023/02/13 20:13:19;;;;;;;;;;;9.50;1.00;;;;;;5034576;28;19917;-82
2023/02/13 20:15:44;;;;;;;;;;;9.50;1.00;;;;;;5018258;28;19974;-80
2023/02/13 20:18:10;;;;;;;;;;;9.50;1.00;;;;;;5018247;28;20287;-81
2023/02/13 20:20:38;;;;;;;;;;;9.60;1.00;;;;;;5017357;28;20000;-81
2023/02/13 20:23:03;;;;;;;;;;;9.60;1.00;;;;;;5034062;28;19949;-81
2023/02/13 20:25:30;;;;;;;;;;;9.60;1.00;;;;;;5016616;28;19916;-82
2023/02/13 20:27:56;;;;;;;;;;;9.60;99.90;;;;;;5034617;28;20325;-82
2023/02/13 20:30:22;;;;;;;;;;;9.60;1.00;;;;;;5016808;28;19992;-82
2023/02/13 20:32:50;;;;;;;;;;;9.60;1.00;;;;;;5036121;28;19909;-82
2023/02/13 20:35:16;;;;;;;;;;;9.60;99.90;;;;;;5034471;28;19916;-82
2023/02/13 20:37:41;;;;;;;;;;;9.60;99.90;;;;;;5034215;28;20390;-82
2023/02/13 20:40:08;;;;;;;;;;;9.60;99.90;;;;;;5034988;28;19999;-82
2023/02/13 20:42:34;;;;;;;;;;;9.60;99.90;;;;;;5041065;28;19913;-81
2023/02/13 20:44:59;;;;;;;;;;;9.60;99.90;;;;;;5066116;28;20266;-82
2023/02/13 20:47:25;;;;;;;;;;;9.60;99.90;;;;;;5067216;28;19920;-82
2023/02/13 20:49:50;;;;;;;;;;;9.60;99.90;;;;;;5074095;28;19966;-82
2023/02/13 20:52:16;;;;;;;;;;;9.50;99.90;;;;;;5055835;28;19912;-81
2023/02/13 20:54:41;;;;;;;;;;;9.50;99.90;;;;;;5070279;28;19909;-82
2023/02/13 20:57:07;;;;;;;;;;;9.40;99.90;;;;;;5051808;28;19962;-82
2023/02/13 20:59:32;;;;;;;;;;;9.40;1.00;;;;;;5073596;28;19915;-82
2023/02/13 21:01:58;;;;;;;;;;;9.40;1.00;;;;;;5055474;28;20377;-82
2023/02/13 21:04:23;;;;;;;;;;;9.30;1.00;;;;;;5073626;28;19908;-82
2023/02/13 21:06:49;;;;;;;;;;;9.20;1.00;;;;;;5047224;28;20355;-82
2023/02/13 21:09:14;;;;;;;;;;;9.20;1.00;;;;;;5055463;28;19912;-81
2023/02/13 21:11:41;;;;;;;;;;;9.20;1.00;;;;;;5072797;28;19912;-82
2023/02/13 21:14:07;;;;;;;;;;;9.10;1.00;;;;;;5067126;28;20386;-81
2023/02/13 21:16:33;;;;;;;;;;;9.10;1.00;;;;;;5054968;28;19959;-82
2023/02/13 21:19:00;;;;;;;;;;;9.10;1.00;;;;;;5040345;28;19915;-81
2023/02/13 21:21:27;;;;;;;;;;;9.00;1.00;;;;;;5069402;28;19942;-82
2023/02/13 21:23:53;;;;;;;;;;;8.90;1.00;;;;;;5035189;28;19909;-81
2023/02/13 21:26:19;;;;;;;;;;;8.90;1.00;;;;;;5053240;28;19912;-81
2023/02/13 21:28:45;;;;;;;;;;;8.90;1.00;;;;;;5053258;28;19969;-82
2023/02/13 21:31:13;;;;;;;;;;;8.80;1.00;;;;;;5053105;28;19913;-81
2023/02/13 21:33:38;;;;;;;;;;;8.80;1.00;;;;;;5073340;28;19916;-81
2023/02/13 21:36:05;;;;;;;;;;;8.70;1.00;;;;;;5073253;28;19908;-81
2023/02/13 21:38:31;;;;;;;;;;;8.80;1.00;;;;;;5073111;28;20295;-82
2023/02/13 21:41:06;;;;;;;;;;;8.70;1.00;;;;;;5072759;28;19909;-81
2023/02/13 21:43:36;;;;;;;;;;;8.70;1.00;;;;;;5055035;28;19908;-81
2023/02/13 21:46:09;;;;;;;;;;;8.70;1.00;;;;;;5072953;28;20362;-81
2023/02/13 21:48:35;;;;;;;;;;;8.60;1.00;;;;;;5054805;28;19963;-82
2023/02/13 21:51:04;;;;;;;;;;;8.60;1.00;;;;;;5054949;28;19954;-81
2023/02/13 21:53:30;;;;;;;;;;;8.50;1.00;;;;;;5072813;28;20291;-81
2023/02/13 21:55:55;;;;;;;;;;;8.50;1.00;;;;;;5054828;28;19999;-82
2023/02/13 21:58:20;;;;;;;;;;;8.50;1.00;;;;;;5054741;28;20007;-82
2023/02/13 22:00:46;;;;;;;;;;;8.50;1.00;;;;;;5054905;28;20336;-81
2023/02/13 22:03:11;;;;;;;;;;;8.50;1.00;;;;;;5054533;28;19963;-81
2023/02/13 22:05:43;;;;;;;;;;;8.40;1.00;;;;;;5072658;28;19912;-81
2023/02/13 22:08:09;;;;;;;;;;;8.40;1.00;;;;;;5072768;28;19913;-82
2023/02/13 22:10:34;;;;;;;;;;;8.40;1.00;;;;;;5072663;28;20370;-81
2023/02/13 22:13:00;;;;;;;;;;;8.30;1.00;;;;;;5072607;28;20259;-82
2023/02/13 22:15:25;;;;;;;;;;;8.30;1.00;;;;;;5072313;28;19969;-81
2023/02/13 22:17:51;;;;;;;;;;;8.30;1.00;;;;;;5072701;28;19908;-81
2023/02/13 22:20:17;;;;;;;;;;;8.20;1.00;;;;;;5072728;28;19908;-81
2023/02/13 22:22:43;;;;;;;;;;;8.20;1.00;;;;;;5058065;28;20404;-82
2023/02/13 22:25:08;;;;;;;;;;;8.20;1.00;;;;;;5058407;28;19909;-82
2023/02/13 22:27:34;;;;;;;;;;;8.20;1.00;;;;;;5078402;28;20604;-80
2023/02/13 22:29:59;;;;;;;;;;;8.20;1.00;;;;;;5078404;28;19916;-80
2023/02/13 22:32:25;;;;;;;;;;;8.30;1.00;;;;;;5060311;28;19931;-81
2023/02/13 22:34:50;;;;;;;;;;;8.30;1.00;;;;;;5078008;28;19958;-79
2023/02/13 22:37:16;;;;;;;;;;;8.30;1.00;;;;;;5059863;28;20358;-80
2023/02/13 22:39:41;;;;;;;;;;;8.30;1.00;;;;;;5059916;28;19954;-80
2023/02/13 22:42:07;;;;;;;;;;;8.30;1.00;;;;;;5077460;28;19912;-80
2023/02/13 22:44:32;;;;;;;;;;;8.30;1.00;;;;;;5077329;28;19908;-81
2023/02/13 22:46:58;;;;;;;;;;;8.30;1.00;;;;;;5077442;28;19909;-80
2023/02/13 22:49:23;;;;;;;;;;;8.20;1.00;;;;;;5053485;28;19908;-80
2023/02/13 22:51:49;;;;;;;;;;;8.20;1.00;;;;;;5058271;28;19909;-81
2023/02/13 22:54:14;;;;;;;;;;;8.20;1.00;;;;;;5040870;28;19913;-81
2023/02/13 22:56:39;;;;;;;;;;;8.10;1.00;;;;;;5058076;28;20104;-81
2023/02/13 22:59:05;;;;;;;;;;;8.10;1.00;;;;;;5057944;28;19909;-81
2023/02/13 23:01:30;;;;;;;;;;;8.00;1.00;;;;;;5039563;28;19966;-81
2023/02/13 23:03:56;;;;;;;;;;;7.90;1.00;;;;;;5057515;28;19948;-79